Terminal Aerodrome Forecast
Issued by NWS Atlanta, GA

Home | Current Version | Previous Version | Text Only | Print | Product List | Glossary On
Versions: 1 2 3 4 5 6 7 8 9 10 11 12 13 14 15 16 17 18 19 20 21 22 23 24 25 26 27 28 29 30 31 32 33 34 35 36 37 38 39
469
FTUS42 KFFC 191555 AAB
TAFATL
TAF AMD
KATL 191555Z 1916/2018 12006KT P6SM SCT100
     FM192000 14008KT P6SM BKN025 BKN100
     FM200000 15009KT P6SM -RA OVC015
     FM200600 20008KT 6SM -RA BR OVC015
     FM201000 22007KT 4SM BR OVC015
     FM201500 21008KT P6SM SCT015 BKN250=

USA.gov is the U.S. government's official web portal to all federal, state and local government web resources and services.